createdAt,value
2023-01-29T00:00:27.441Z,97933.00
2023-01-29T00:02:56.444Z,97936.34
2023-01-29T00:05:28.219Z,97935.53
2023-01-29T00:07:58.721Z,97942.13
2023-01-29T00:10:27.775Z,97941.03
2023-01-29T00:12:56.271Z,97944.53
2023-01-29T00:15:24.667Z,97944.31
2023-01-29T00:17:52.957Z,97942.69
2023-01-29T00:20:21.787Z,97943.59
2023-01-29T00:22:49.985Z,97940.34
2023-01-29T00:25:19.893Z,97937.97
2023-01-29T00:27:48.348Z,97930.28
2023-01-29T00:30:19.793Z,97919.75
2023-01-29T00:32:48.480Z,97917.06
2023-01-29T00:35:17.255Z,97931.75
2023-01-29T00:37:45.584Z,97937.97
2023-01-29T00:40:15.247Z,97938.63
2023-01-29T00:43:04.812Z,97925.00
2023-01-29T00:45:33.876Z,97934.34
2023-01-29T00:48:02.486Z,97934.16
2023-01-29T00:50:32.372Z,97932.59
2023-01-29T00:53:01.242Z,97927.84
2023-01-29T00:55:29.788Z,97922.00
2023-01-29T00:57:59.499Z,97930.06
2023-01-29T01:00:27.867Z,97925.44
2023-01-29T01:03:07.515Z,97919.59
2023-01-29T01:05:36.918Z,97919.88
2023-01-29T01:08:26.746Z,97918.03
2023-01-29T01:11:01.684Z,97921.88
2023-01-29T01:13:34.235Z,97915.91
2023-01-29T01:16:03.366Z,97920.25
2023-01-29T01:18:32.544Z,97918.75
2023-01-29T01:21:01.223Z,97924.69
2023-01-29T01:23:29.608Z,97916.72
2023-01-29T01:25:58.185Z,97926.78
2023-01-29T01:28:26.869Z,97913.38
2023-01-29T01:30:56.663Z,97915.34
2023-01-29T01:33:25.750Z,97914.28
2023-01-29T01:35:54.015Z,97907.66
2023-01-29T01:38:22.790Z,97911.81
2023-01-29T01:40:51.148Z,97915.56
2023-01-29T01:43:19.479Z,97910.63
2023-01-29T01:45:48.661Z,97909.59
2023-01-29T01:48:25.907Z,97896.78
2023-01-29T01:50:59.150Z,97896.53
2023-01-29T01:53:38.484Z,97899.22
2023-01-29T01:56:19.777Z,97902.44
2023-01-29T01:58:54.905Z,97885.81
2023-01-29T02:01:29.048Z,97888.50
2023-01-29T02:04:22.554Z,97890.59
2023-01-29T02:07:12.579Z,97887.03
2023-01-29T02:09:48.550Z,97884.69
2023-01-29T02:12:18.860Z,97894.41
2023-01-29T02:14:47.468Z,97890.53
2023-01-29T02:17:18.794Z,97891.81
2023-01-29T02:20:02.725Z,97898.25
2023-01-29T02:23:23.023Z,97893.13
2023-01-29T02:26:15.913Z,97904.06
2023-01-29T02:28:55.671Z,97910.28
2023-01-29T02:31:34.035Z,97910.19
2023-01-29T02:34:23.089Z,97906.09
2023-01-29T02:37:04.361Z,97910.19
2023-01-29T02:39:39.845Z,97911.69
2023-01-29T02:42:22.627Z,97913.25
2023-01-29T02:45:02.038Z,97914.13
2023-01-29T02:47:38.621Z,97905.28
2023-01-29T02:50:16.694Z,97906.25
2023-01-29T02:52:57.223Z,97910.38
2023-01-29T02:55:39.229Z,97905.94
2023-01-29T02:58:18.098Z,97904.47
2023-01-29T03:00:50.555Z,97904.16
2023-01-29T03:03:24.737Z,97914.97
2023-01-29T03:06:02.270Z,97908.56
2023-01-29T03:08:45.801Z,97911.03
2023-01-29T03:11:18.660Z,97908.34
2023-01-29T03:13:54.667Z,97907.81
2023-01-29T03:16:33.799Z,97902.22
2023-01-29T03:19:08.284Z,97897.09
2023-01-29T03:21:58.986Z,97897.84
2023-01-29T03:24:56.283Z,97897.63
2023-01-29T03:27:56.708Z,97890.03
2023-01-29T03:30:47.284Z,97897.25
2023-01-29T03:33:45.607Z,97898.22
2023-01-29T03:36:19.913Z,97912.97
2023-01-29T03:38:48.393Z,97904.25
2023-01-29T03:41:27.267Z,97898.06
2023-01-29T03:44:11.710Z,97901.19
2023-01-29T03:46:50.632Z,97897.47
2023-01-29T03:49:32.725Z,97901.78
2023-01-29T03:52:16.881Z,97901.19
2023-01-29T03:55:00.839Z,97901.88
2023-01-29T03:57:41.518Z,97902.84
2023-01-29T04:00:19.682Z,97910.28
2023-01-29T04:03:10.793Z,97916.72
2023-01-29T04:05:51.321Z,97917.75
2023-01-29T04:08:30.138Z,97921.84
2023-01-29T04:11:18.434Z,97926.16
2023-01-29T04:13:48.543Z,97922.34
2023-01-29T04:16:26.400Z,97922.81
2023-01-29T04:19:21.417Z,97929.81
2023-01-29T04:22:03.651Z,97919.31
2023-01-29T04:24:33.370Z,97921.41
2023-01-29T04:27:20.883Z,97917.56
2023-01-29T04:30:12.642Z,97913.06
2023-01-29T04:33:01.980Z,97914.09
2023-01-29T04:35:38.689Z,97912.22
2023-01-29T04:38:21.989Z,97919.31
2023-01-29T04:41:01.815Z,97932.56
2023-01-29T04:43:40.829Z,97926.59
2023-01-29T04:46:20.576Z,97920.19
2023-01-29T04:49:07.547Z,97929.53
2023-01-29T04:51:48.897Z,97916.72
2023-01-29T04:54:34.157Z,97919.75
2023-01-29T04:57:09.350Z,97929.34
2023-01-29T04:59:44.229Z,97933.53
2023-01-29T05:02:14.390Z,97933.75
2023-01-29T05:04:45.822Z,97932.22
2023-01-29T05:07:17.048Z,97929.97
2023-01-29T05:09:49.607Z,97924.66
2023-01-29T05:12:19.515Z,97931.16
2023-01-29T05:14:51.265Z,97937.25
2023-01-29T05:17:21.673Z,97933.09
2023-01-29T05:19:50.375Z,97927.13
2023-01-29T05:22:22.769Z,97918.72
2023-01-29T05:24:56.470Z,97909.25
2023-01-29T05:27:51.559Z,97910.72
2023-01-29T05:30:20.075Z,97913.47
2023-01-29T05:32:48.347Z,97911.28
2023-01-29T05:35:16.819Z,97915.59
2023-01-29T05:37:45.657Z,97909.84
2023-01-29T05:40:15.940Z,97908.34
2023-01-29T05:42:44.437Z,97907.75
2023-01-29T05:45:12.882Z,97909.34
2023-01-29T05:47:41.290Z,97903.28
2023-01-29T05:50:11.444Z,97906.88
2023-01-29T05:52:39.872Z,97907.19
2023-01-29T05:55:10.378Z,97920.34
2023-01-29T05:57:42.185Z,97921.91
2023-01-29T06:00:14.209Z,97931.75
2023-01-29T06:02:43.050Z,97928.16
2023-01-29T06:05:11.469Z,97924.22
2023-01-29T06:07:45.138Z,97924.28
2023-01-29T06:10:15.014Z,97920.56
2023-01-29T06:12:45.911Z,97919.81
2023-01-29T06:15:15.743Z,97922.72
2023-01-29T06:17:44.847Z,97914.28
2023-01-29T06:20:14.322Z,97900.38
2023-01-29T06:22:43.069Z,97903.13
2023-01-29T06:25:15.459Z,97894.56
2023-01-29T06:27:45.022Z,97889.66
2023-01-29T06:30:14.825Z,97890.91
2023-01-29T06:32:43.221Z,97883.78
2023-01-29T06:35:14.805Z,97879.38
2023-01-29T06:37:43.528Z,97879.75
2023-01-29T06:40:13.453Z,97874.53
2023-01-29T06:42:42.112Z,97869.94
2023-01-29T06:45:12.892Z,97865.47
2023-01-29T06:47:41.359Z,97879.38
2023-01-29T06:50:11.885Z,97878.19
2023-01-29T06:52:40.268Z,97880.19
2023-01-29T06:55:11.140Z,97876.97
2023-01-29T06:57:39.487Z,97880.19
2023-01-29T07:00:10.270Z,97879.38
2023-01-29T07:02:43.095Z,97890.88
2023-01-29T07:05:11.439Z,97891.66
2023-01-29T07:07:39.746Z,97901.72
2023-01-29T07:10:10.147Z,97903.97
2023-01-29T07:12:38.437Z,97913.34
2023-01-29T07:15:08.436Z,97919.00
2023-01-29T07:17:37.098Z,97918.78
2023-01-29T07:20:10.455Z,97921.38
2023-01-29T07:22:39.119Z,97925.66
2023-01-29T07:25:09.545Z,97931.22
2023-01-29T07:27:37.929Z,97924.66
2023-01-29T07:30:08.156Z,97925.47
2023-01-29T07:32:36.475Z,97920.34
2023-01-29T07:35:07.066Z,97912.91
2023-01-29T07:37:35.727Z,97913.94
2023-01-29T07:40:05.223Z,97903.56
2023-01-29T07:42:33.531Z,97910.00
2023-01-29T07:45:01.913Z,97913.94
2023-01-29T07:47:30.202Z,97926.22
2023-01-29T07:49:58.435Z,97929.50
2023-01-29T07:52:28.241Z,97924.22
2023-01-29T07:54:56.544Z,97926.16
2023-01-29T07:57:25.360Z,97927.41
2023-01-29T07:59:54.300Z,97936.44
2023-01-29T08:02:22.656Z,97924.22
2023-01-29T08:04:50.921Z,97924.00
2023-01-29T08:07:19.327Z,97930.50
2023-01-29T08:09:49.025Z,97930.19
2023-01-29T08:12:17.540Z,97935.34
2023-01-29T08:14:46.935Z,97935.84
2023-01-29T08:17:15.557Z,97940.91
2023-01-29T08:19:44.989Z,97946.50
2023-01-29T08:22:13.311Z,97953.53
2023-01-29T08:24:53.800Z,97960.94
2023-01-29T08:27:33.459Z,97960.22
2023-01-29T08:30:01.795Z,97965.56
2023-01-29T08:32:30.171Z,97953.13
2023-01-29T08:34:58.470Z,97950.94
2023-01-29T08:37:26.892Z,97947.81
2023-01-29T08:39:55.788Z,97948.84
2023-01-29T08:42:24.159Z,97962.28
2023-01-29T08:44:53.829Z,97965.25
2023-01-29T08:47:22.148Z,97962.81
2023-01-29T08:49:50.398Z,97961.19
2023-01-29T08:52:18.715Z,97970.72
2023-01-29T08:54:47.075Z,97968.72
2023-01-29T08:57:15.656Z,97980.47
2023-01-29T08:59:43.898Z,97976.75
2023-01-29T09:02:13.875Z,97976.59
2023-01-29T09:04:42.106Z,97978.47
2023-01-29T09:07:10.714Z,97990.59
2023-01-29T09:09:39.169Z,97991.88
2023-01-29T09:12:08.219Z,97995.25
2023-01-29T09:14:36.552Z,97998.16
2023-01-29T09:17:05.252Z,98000.25
2023-01-29T09:19:34.927Z,98000.75
2023-01-29T09:22:03.213Z,98003.66
2023-01-29T09:24:32.872Z,98004.47
2023-01-29T09:27:01.157Z,98001.66
2023-01-29T09:29:29.448Z,97996.88
2023-01-29T09:31:58.120Z,97996.34
2023-01-29T09:34:27.258Z,97988.94
2023-01-29T09:36:56.923Z,97986.97
2023-01-29T09:39:25.301Z,97983.50
2023-01-29T09:42:04.637Z,97978.97
2023-01-29T09:44:58.276Z,97977.47
2023-01-29T09:47:29.178Z,97978.81
2023-01-29T09:50:05.763Z,97976.44
2023-01-29T09:52:41.218Z,97977.66
2023-01-29T09:55:23.346Z,97975.72
2023-01-29T09:57:57.518Z,97964.22
2023-01-29T10:00:38.643Z,97967.63
2023-01-29T10:03:36.850Z,97969.13
2023-01-29T10:06:26.338Z,97964.81
2023-01-29T10:09:34.952Z,97967.03
2023-01-29T10:12:26.467Z,97962.97
2023-01-29T10:15:06.977Z,97949.53
2023-01-29T10:18:00.872Z,97948.56
2023-01-29T10:20:58.575Z,97951.53
2023-01-29T10:23:34.578Z,97946.94
2023-01-29T10:26:04.969Z,97948.69
2023-01-29T10:28:42.744Z,97937.84
2023-01-29T10:31:20.750Z,97930.81
2023-01-29T10:34:01.900Z,97933.00
2023-01-29T10:36:39.579Z,97930.94
2023-01-29T10:39:17.520Z,97928.00
2023-01-29T10:42:07.274Z,97934.78
2023-01-29T10:44:50.958Z,97937.25
2023-01-29T10:48:04.376Z,97933.97
2023-01-29T10:50:49.948Z,97921.31
2023-01-29T10:53:40.671Z,97918.25
2023-01-29T10:56:32.536Z,97912.28
2023-01-29T10:59:09.549Z,97915.09
2023-01-29T11:01:37.827Z,97903.56
2023-01-29T11:04:13.814Z,97903.94
2023-01-29T11:06:42.516Z,97899.81
2023-01-29T11:09:33.588Z,97890.34
2023-01-29T11:12:10.023Z,97883.81
2023-01-29T11:14:46.641Z,97881.69
2023-01-29T11:17:19.949Z,97893.53
2023-01-29T11:19:51.405Z,97887.06
2023-01-29T11:22:23.256Z,97887.53
2023-01-29T11:25:11.996Z,97889.78
2023-01-29T11:27:46.898Z,97886.38
2023-01-29T11:30:27.350Z,97873.53
2023-01-29T11:33:09.193Z,97881.59
2023-01-29T11:35:37.846Z,97888.03
2023-01-29T11:38:20.417Z,97887.78
2023-01-29T11:40:49.691Z,97892.59
2023-01-29T11:43:29.994Z,97880.31
2023-01-29T11:46:02.863Z,97879.50
2023-01-29T11:48:42.999Z,97884.53
2023-01-29T11:51:21.371Z,97869.34
2023-01-29T11:53:56.046Z,97860.69
2023-01-29T11:56:30.105Z,97861.38
2023-01-29T11:59:00.217Z,97850.03
2023-01-29T12:01:38.096Z,97847.13
2023-01-29T12:04:21.527Z,97840.22
2023-01-29T12:06:53.206Z,97840.00
2023-01-29T12:09:25.816Z,97839.53
2023-01-29T12:11:54.186Z,97830.28
2023-01-29T12:14:33.509Z,97825.50
2023-01-29T12:17:11.819Z,97831.13
2023-01-29T12:19:47.588Z,97824.22
2023-01-29T12:22:24.568Z,97808.91
2023-01-29T12:25:01.961Z,97800.13
2023-01-29T12:27:40.172Z,97799.09
2023-01-29T12:30:21.290Z,97801.78
2023-01-29T12:33:06.469Z,97798.47
2023-01-29T12:35:44.782Z,97782.34
2023-01-29T12:38:20.146Z,97775.69
2023-01-29T12:40:55.235Z,97773.28
2023-01-29T12:43:33.028Z,97774.94
2023-01-29T12:46:04.435Z,97783.72
2023-01-29T12:48:37.639Z,97791.56
2023-01-29T12:51:11.678Z,97790.47
2023-01-29T12:53:46.584Z,97779.94
2023-01-29T12:56:31.193Z,97775.72
2023-01-29T12:59:05.745Z,97773.72
2023-01-29T13:01:41.967Z,97768.69
2023-01-29T13:04:19.761Z,97768.47
2023-01-29T13:06:54.901Z,97759.31
2023-01-29T13:09:29.957Z,97764.25
2023-01-29T13:12:04.802Z,97762.97
2023-01-29T13:14:45.307Z,97766.00
2023-01-29T13:17:22.850Z,97760.88
2023-01-29T13:19:56.912Z,97755.22
2023-01-29T13:22:30.079Z,97752.72
2023-01-29T13:25:05.007Z,97751.16
2023-01-29T13:27:38.012Z,97744.84
2023-01-29T13:30:08.628Z,97749.69
2023-01-29T13:32:37.698Z,97756.69
2023-01-29T13:35:17.435Z,97754.88
2023-01-29T13:37:52.350Z,97753.88
2023-01-29T13:40:27.956Z,97747.75
2023-01-29T13:43:00.691Z,97752.94
2023-01-29T13:45:37.310Z,97753.09
2023-01-29T13:48:24.761Z,97744.00
2023-01-29T13:50:57.494Z,97740.03
2023-01-29T13:53:28.984Z,97745.34
2023-01-29T13:56:30.633Z,97736.72
2023-01-29T13:59:01.733Z,97737.88
2023-01-29T14:02:05.670Z,97738.44
2023-01-29T14:04:34.331Z,97740.31
2023-01-29T14:07:41.113Z,97742.03
2023-01-29T14:10:20.332Z,97740.25
2023-01-29T14:12:56.616Z,97748.38
2023-01-29T14:15:32.743Z,97763.81
2023-01-29T14:18:22.315Z,97761.25
2023-01-29T14:21:04.260Z,97762.66
2023-01-29T14:23:41.698Z,97757.38
2023-01-29T14:26:31.699Z,97743.03
2023-01-29T14:29:25.545Z,97733.69
2023-01-29T14:32:15.102Z,97726.53
2023-01-29T14:34:48.274Z,97726.41
2023-01-29T14:37:26.466Z,97740.09
2023-01-29T14:40:09.088Z,97737.09
2023-01-29T14:42:44.924Z,97737.78
2023-01-29T14:45:27.331Z,97728.66
2023-01-29T14:48:36.455Z,97735.75
2023-01-29T14:51:12.357Z,97742.06
2023-01-29T14:54:03.590Z,97732.25
2023-01-29T14:56:38.495Z,97743.59
2023-01-29T14:59:20.528Z,97735.66
2023-01-29T15:01:54.354Z,97736.94
2023-01-29T15:04:29.344Z,97736.03
2023-01-29T15:07:05.480Z,97727.13
2023-01-29T15:09:43.838Z,97724.91
2023-01-29T15:12:26.469Z,97714.16
2023-01-29T15:15:07.114Z,97716.94
2023-01-29T15:17:43.990Z,97705.03
2023-01-29T15:20:30.390Z,97702.72
2023-01-29T15:23:00.456Z,97702.16
2023-01-29T15:25:35.748Z,97708.56
2023-01-29T15:28:10.222Z,97711.03
2023-01-29T15:30:43.204Z,97715.34
2023-01-29T15:33:19.104Z,97718.72
2023-01-29T15:35:53.533Z,97711.38
2023-01-29T15:38:25.465Z,97703.78
2023-01-29T15:40:56.492Z,97705.22
2023-01-29T15:43:28.621Z,97692.59
2023-01-29T15:46:00.390Z,97697.97
2023-01-29T15:48:34.016Z,97692.38
2023-01-29T15:51:05.154Z,97692.03
2023-01-29T15:53:42.490Z,97685.81
2023-01-29T15:56:13.409Z,97690.38
2023-01-29T15:58:43.963Z,97683.97
2023-01-29T16:01:14.274Z,97692.94
2023-01-29T16:03:44.288Z,97691.31
2023-01-29T16:06:13.942Z,97683.72
2023-01-29T16:08:48.055Z,97687.00
2023-01-29T16:11:19.229Z,97689.09
2023-01-29T16:13:51.728Z,97689.78
2023-01-29T16:16:26.197Z,97688.16
2023-01-29T16:19:01.278Z,97687.81
2023-01-29T16:21:34.928Z,97694.22
2023-01-29T16:24:09.750Z,97685.00
2023-01-29T16:26:44.299Z,97696.22
2023-01-29T16:29:17.772Z,97701.22
2023-01-29T16:31:49.476Z,97700.19
2023-01-29T16:34:28.037Z,97696.69
2023-01-29T16:36:58.556Z,97690.59
2023-01-29T16:39:33.800Z,97696.44
2023-01-29T16:42:25.111Z,97699.81
2023-01-29T16:44:59.381Z,97702.75
2023-01-29T16:47:35.971Z,97707.50
2023-01-29T16:50:36.005Z,97709.81
2023-01-29T16:53:13.533Z,97694.06
2023-01-29T16:55:47.004Z,97691.25
2023-01-29T16:58:21.572Z,97702.09
2023-01-29T17:00:57.702Z,97699.47
2023-01-29T17:03:28.514Z,97708.44
2023-01-29T17:06:01.101Z,97699.69
2023-01-29T17:08:34.620Z,97702.56
2023-01-29T17:11:03.504Z,97707.13
2023-01-29T17:13:39.194Z,97706.69
2023-01-29T17:16:24.365Z,97713.56
2023-01-29T17:18:52.714Z,97710.53
2023-01-29T17:21:21.362Z,97718.75
2023-01-29T17:23:49.776Z,97723.03
2023-01-29T17:26:19.104Z,97727.94
2023-01-29T17:28:50.326Z,97724.00
2023-01-29T17:31:20.207Z,97726.69
2023-01-29T17:33:49.207Z,97717.31
2023-01-29T17:36:19.505Z,97713.72
2023-01-29T17:38:48.186Z,97713.72
2023-01-29T17:41:26.740Z,97717.44
2023-01-29T17:43:55.358Z,97713.13
2023-01-29T17:46:27.554Z,97711.50
2023-01-29T17:48:56.239Z,97715.44
2023-01-29T17:51:25.108Z,97720.34
2023-01-29T17:53:53.534Z,97720.59
2023-01-29T17:56:28.075Z,97716.06
2023-01-29T17:58:56.779Z,97713.59
2023-01-29T18:01:26.528Z,97715.91
2023-01-29T18:03:54.891Z,97719.44
2023-01-29T18:06:29.554Z,97715.66
2023-01-29T18:08:58.526Z,97710.53
2023-01-29T18:11:28.223Z,97720.47
2023-01-29T18:13:56.973Z,97710.31
2023-01-29T18:16:27.174Z,97713.00
2023-01-29T18:18:56.293Z,97713.00
2023-01-29T18:21:24.683Z,97712.63
2023-01-29T18:23:53.310Z,97708.56
2023-01-29T18:26:22.800Z,97708.13
2023-01-29T18:28:51.818Z,97704.25
2023-01-29T18:31:20.608Z,97706.34
2023-01-29T18:33:50.345Z,97710.28
2023-01-29T18:36:18.716Z,97708.06
2023-01-29T18:38:47.025Z,97710.97
2023-01-29T18:41:16.469Z,97704.00
2023-01-29T18:43:45.221Z,97708.06
2023-01-29T18:46:13.583Z,97694.31
2023-01-29T18:48:42.967Z,97697.78
2023-01-29T18:51:12.838Z,97697.22
2023-01-29T18:53:41.339Z,97699.31
2023-01-29T18:56:11.735Z,97693.81
2023-01-29T18:58:45.998Z,97687.72
2023-01-29T19:01:21.393Z,97687.25
2023-01-29T19:03:49.751Z,97686.53
2023-01-29T19:06:19.415Z,97689.06
2023-01-29T19:08:47.984Z,97691.16
2023-01-29T19:11:16.503Z,97683.56
2023-01-29T19:13:46.137Z,97681.97
2023-01-29T19:16:14.512Z,97695.19
2023-01-29T19:18:43.624Z,97694.03
2023-01-29T19:21:15.315Z,97687.25
2023-01-29T19:23:45.936Z,97693.28
2023-01-29T19:26:14.810Z,97682.44
2023-01-29T19:28:43.397Z,97694.91
2023-01-29T19:31:12.090Z,97698.59
2023-01-29T19:33:40.779Z,97698.84
2023-01-29T19:36:10.337Z,97705.47
2023-01-29T19:38:39.887Z,97706.16
2023-01-29T19:41:09.854Z,97700.44
2023-01-29T19:43:41.822Z,97707.25
2023-01-29T19:46:11.281Z,97699.69
2023-01-29T19:48:39.968Z,97706.75
2023-01-29T19:51:14.281Z,97697.31
2023-01-29T19:53:44.725Z,97687.25
2023-01-29T19:56:18.092Z,97692.38
2023-01-29T19:58:50.584Z,97692.03
2023-01-29T20:01:22.234Z,97699.03
2023-01-29T20:03:52.268Z,97703.78
2023-01-29T20:06:25.056Z,97693.06
2023-01-29T20:08:53.603Z,97690.16
2023-01-29T20:11:24.964Z,97698.28
2023-01-29T20:13:54.438Z,97699.34
2023-01-29T20:16:23.819Z,97692.09
2023-01-29T20:18:52.373Z,97692.78
2023-01-29T20:21:22.165Z,97697.53
2023-01-29T20:23:52.130Z,97690.31
2023-01-29T20:26:22.866Z,97692.63
2023-01-29T20:28:51.473Z,97683.16
2023-01-29T20:31:20.133Z,97685.47
2023-01-29T20:33:48.786Z,97675.81
2023-01-29T20:36:17.111Z,97689.66
2023-01-29T20:38:45.509Z,97681.84
2023-01-29T20:41:16.998Z,97679.81
2023-01-29T20:43:50.151Z,97678.19
2023-01-29T20:46:19.617Z,97678.63
2023-01-29T20:48:49.416Z,97673.03
2023-01-29T20:51:18.746Z,97675.13
2023-01-29T20:53:48.583Z,97664.88
2023-01-29T20:56:20.573Z,97665.09
2023-01-29T20:59:03.413Z,97667.75
2023-01-29T21:01:31.778Z,97659.97
2023-01-29T21:04:00.011Z,97660.41
2023-01-29T21:06:29.486Z,97657.72
2023-01-29T21:08:57.835Z,97650.97
2023-01-29T21:11:26.234Z,97652.16
2023-01-29T21:13:57.683Z,97643.91
2023-01-29T21:16:27.716Z,97637.38
2023-01-29T21:18:59.869Z,97641.50
2023-01-29T21:21:28.538Z,97619.53
2023-01-29T21:23:58.133Z,97622.63
2023-01-29T21:26:26.463Z,97609.91
2023-01-29T21:28:54.940Z,97607.59
2023-01-29T21:31:23.709Z,97610.28
2023-01-29T21:33:53.420Z,97603.47
2023-01-29T21:36:21.773Z,97603.47
2023-01-29T21:38:50.800Z,97606.13
2023-01-29T21:41:19.267Z,97599.97
2023-01-29T21:43:46.636Z,97603.25
2023-01-29T21:46:16.179Z,97600.13
2023-01-29T21:48:44.696Z,97608.59
2023-01-29T21:51:14.415Z,97610.47
2023-01-29T21:53:42.729Z,97619.53
2023-01-29T21:56:10.962Z,97609.47
2023-01-29T21:58:39.503Z,97616.69
2023-01-29T22:01:36.499Z,97611.72
2023-01-29T22:03:57.123Z,97607.38
2023-01-29T22:06:27.630Z,97607.88
2023-01-29T22:08:55.913Z,97608.44
2023-01-29T22:11:28.107Z,97615.63
2023-01-29T22:13:56.406Z,97604.50
2023-01-29T22:16:24.742Z,97606.59
2023-01-29T22:18:53.094Z,97613.38
2023-01-29T22:21:21.473Z,97612.59
2023-01-29T22:23:51.288Z,97617.00
2023-01-29T22:26:19.872Z,97613.53
2023-01-29T22:28:48.193Z,97619.59
2023-01-29T22:31:16.461Z,97617.34
2023-01-29T22:33:45.123Z,97618.16
2023-01-29T22:36:13.503Z,97623.72
2023-01-29T22:38:44.012Z,97608.69
2023-01-29T22:41:14.555Z,97605.66
2023-01-29T22:43:43.993Z,97599.94
2023-01-29T22:46:13.582Z,97600.75
2023-01-29T22:48:42.537Z,97604.06
2023-01-29T22:51:11.827Z,97592.41
2023-01-29T22:53:43.198Z,97591.44
2023-01-29T22:56:13.646Z,97594.38
2023-01-29T22:58:42.181Z,97588.44
2023-01-29T23:01:11.627Z,97577.16
2023-01-29T23:03:40.034Z,97586.56
2023-01-29T23:06:10.814Z,97574.41
2023-01-29T23:08:39.177Z,97563.06
2023-01-29T23:11:18.055Z,97561.13
2023-01-29T23:13:50.166Z,97551.81
2023-01-29T23:16:21.243Z,97548.84
2023-01-29T23:18:52.923Z,97538.66
2023-01-29T23:21:24.968Z,97531.59
2023-01-29T23:23:55.505Z,97538.75
2023-01-29T23:26:41.624Z,97533.31
2023-01-29T23:29:14.729Z,97536.72
2023-01-29T23:31:43.172Z,97532.78
2023-01-29T23:34:15.216Z,97527.44
2023-01-29T23:36:44.271Z,97521.22
2023-01-29T23:39:12.844Z,97516.81
2023-01-29T23:41:41.276Z,97506.41
2023-01-29T23:44:11.116Z,97493.09
2023-01-29T23:46:39.730Z,97500.97
2023-01-29T23:49:08.647Z,97496.53
2023-01-29T23:51:37.017Z,97484.19
2023-01-29T23:54:06.050Z,97470.25
2023-01-29T23:56:34.756Z,97476.69
2023-01-29T23:59:03.400Z,97469.13
